createdAt,value
2017-07-03T00:02:22.701Z,13.10
2017-07-03T00:04:50.198Z,13.10
2017-07-03T00:07:18.400Z,13.10
2017-07-03T00:09:45.842Z,13.00
2017-07-03T00:12:13.314Z,13.10
2017-07-03T00:14:40.792Z,13.10
2017-07-03T00:17:08.243Z,13.10
2017-07-03T00:19:35.722Z,13.00
2017-07-03T00:22:03.196Z,13.00
2017-07-03T00:24:30.634Z,13.00
2017-07-03T00:26:58.155Z,13.00
2017-07-03T00:29:25.590Z,13.00
2017-07-03T00:31:53.049Z,13.00
2017-07-03T00:34:21.254Z,12.90
2017-07-03T00:36:48.739Z,12.90
2017-07-03T00:39:16.287Z,12.90
2017-07-03T00:41:43.757Z,12.90
2017-07-03T00:44:11.214Z,12.90
2017-07-03T00:46:38.703Z,12.90
2017-07-03T00:49:06.270Z,12.90
2017-07-03T00:51:33.783Z,12.80
2017-07-03T00:54:01.434Z,12.80
2017-07-03T00:56:28.867Z,12.80
2017-07-03T00:58:56.369Z,12.80
2017-07-03T01:01:23.815Z,12.80
2017-07-03T01:03:51.280Z,12.80
2017-07-03T01:06:18.851Z,12.80
2017-07-03T01:08:46.270Z,12.80
2017-07-03T01:11:13.743Z,12.70
2017-07-03T01:13:41.293Z,12.70
2017-07-03T01:16:08.771Z,12.60
2017-07-03T01:18:36.211Z,12.60
2017-07-03T01:21:03.655Z,12.60
2017-07-03T01:23:31.097Z,12.60
2017-07-03T01:25:58.542Z,12.60
2017-07-03T01:28:26.068Z,12.60
2017-07-03T01:30:54.330Z,12.50
2017-07-03T01:33:21.885Z,12.50
2017-07-03T01:35:49.359Z,12.50
2017-07-03T01:38:17.594Z,12.50
2017-07-03T01:40:45.060Z,12.50
2017-07-03T01:43:12.492Z,12.50
2017-07-03T01:45:39.962Z,12.40
2017-07-03T01:48:07.415Z,12.50
2017-07-03T01:50:34.907Z,12.50
2017-07-03T01:53:02.432Z,12.40
2017-07-03T01:55:29.866Z,12.50
2017-07-03T01:57:57.315Z,12.50
2017-07-03T02:00:24.811Z,12.50
2017-07-03T02:02:52.267Z,12.50
2017-07-03T02:05:19.708Z,12.50
2017-07-03T02:07:47.175Z,12.50
2017-07-03T02:10:14.660Z,12.50
2017-07-03T02:12:42.222Z,12.60
2017-07-03T02:15:09.658Z,12.50
2017-07-03T02:17:37.094Z,12.50
2017-07-03T02:20:04.534Z,12.50
2017-07-03T02:22:32.042Z,12.50
2017-07-03T02:24:59.524Z,12.50
2017-07-03T02:27:27.714Z,12.40
2017-07-03T02:29:55.237Z,12.30
2017-07-03T02:32:23.487Z,12.30
2017-07-03T02:34:51.043Z,12.30
2017-07-03T02:37:18.480Z,12.30
2017-07-03T02:39:45.973Z,12.30
2017-07-03T02:42:13.513Z,12.20
2017-07-03T02:44:40.959Z,12.20
2017-07-03T02:47:08.414Z,12.20
2017-07-03T02:49:35.895Z,12.10
2017-07-03T02:52:03.347Z,12.10
2017-07-03T02:54:30.786Z,12.10
2017-07-03T02:56:58.221Z,12.10
2017-07-03T02:59:25.712Z,12.00
2017-07-03T03:01:53.187Z,12.10
2017-07-03T03:04:20.716Z,12.00
2017-07-03T03:06:48.193Z,12.10
2017-07-03T03:09:15.832Z,12.10
2017-07-03T03:11:43.293Z,12.10
2017-07-03T03:14:10.733Z,12.00
2017-07-03T03:16:38.286Z,12.00
2017-07-03T03:19:05.721Z,12.00
2017-07-03T03:21:33.241Z,11.90
2017-07-03T03:24:00.663Z,12.00
2017-07-03T03:26:28.099Z,12.00
2017-07-03T03:28:55.578Z,12.00
2017-07-03T03:31:23.046Z,12.00
2017-07-03T03:33:50.478Z,12.00
2017-07-03T03:36:17.913Z,12.00
2017-07-03T03:38:45.353Z,12.00
2017-07-03T03:41:13.552Z,12.00
2017-07-03T03:43:41.038Z,12.00
2017-07-03T03:46:08.515Z,12.10
2017-07-03T03:48:36.074Z,12.10
2017-07-03T03:51:03.511Z,12.10
2017-07-03T03:53:30.939Z,12.10
2017-07-03T03:55:58.438Z,12.10
2017-07-03T03:58:25.876Z,12.10
2017-07-03T04:00:53.403Z,12.10
2017-07-03T04:03:20.842Z,12.20
2017-07-03T04:05:48.291Z,12.20
2017-07-03T04:08:16.519Z,12.30
2017-07-03T04:10:43.974Z,12.30
2017-07-03T04:13:11.468Z,12.40
2017-07-03T04:15:38.910Z,12.40
2017-07-03T04:18:06.466Z,12.50
2017-07-03T04:20:34.002Z,12.50
2017-07-03T04:23:01.458Z,12.50
2017-07-03T04:25:28.916Z,12.50
2017-07-03T04:27:56.383Z,12.50
2017-07-03T04:30:23.819Z,12.50
2017-07-03T04:32:51.303Z,12.50
2017-07-03T04:35:18.880Z,12.50
2017-07-03T04:37:47.092Z,12.50
2017-07-03T04:40:14.585Z,12.50
2017-07-03T04:42:42.014Z,12.60
2017-07-03T04:45:09.631Z,12.60
2017-07-03T04:47:37.069Z,12.70
2017-07-03T04:50:04.618Z,12.80
2017-07-03T04:52:32.181Z,12.80
2017-07-03T04:54:59.606Z,12.80
2017-07-03T04:57:27.091Z,12.80
2017-07-03T04:59:54.522Z,12.80
2017-07-03T05:02:22.038Z,12.80
2017-07-03T05:04:50.264Z,12.90
2017-07-03T05:07:17.754Z,12.90
2017-07-03T05:09:45.286Z,13.00
2017-07-03T05:12:12.831Z,13.10
2017-07-03T05:14:40.291Z,13.20
2017-07-03T05:17:07.753Z,13.30
2017-07-03T05:19:35.312Z,13.40
2017-07-03T05:22:02.762Z,13.40
2017-07-03T05:24:30.258Z,13.40
2017-07-03T05:26:57.908Z,13.30
2017-07-03T05:29:25.358Z,13.30
2017-07-03T05:31:52.832Z,13.40
2017-07-03T05:34:20.427Z,13.40
2017-07-03T05:36:47.952Z,13.40
2017-07-03T05:39:15.430Z,13.50
2017-07-03T05:41:42.886Z,13.60
2017-07-03T05:44:16.010Z,13.70
2017-07-03T05:46:44.247Z,13.90
2017-07-03T05:49:11.702Z,13.80
2017-07-03T05:51:39.167Z,14.00
2017-07-03T05:54:06.645Z,14.10
2017-07-03T05:56:34.191Z,14.10
2017-07-03T05:59:01.615Z,14.20
2017-07-03T06:01:29.064Z,14.20
2017-07-03T06:03:56.508Z,14.20
2017-07-03T06:06:24.014Z,14.30
2017-07-03T06:08:51.471Z,14.40
2017-07-03T06:11:18.943Z,14.40
2017-07-03T06:13:47.210Z,14.60
2017-07-03T06:16:14.775Z,14.60
2017-07-03T06:18:42.346Z,14.70
2017-07-03T06:21:09.914Z,14.70
2017-07-03T06:23:38.163Z,14.80
2017-07-03T06:26:05.703Z,14.80
2017-07-03T06:28:33.152Z,14.90
2017-07-03T06:31:00.626Z,14.90
2017-07-03T06:33:28.098Z,15.10
2017-07-03T06:35:55.636Z,15.20
2017-07-03T06:38:23.088Z,15.30
2017-07-03T06:40:50.578Z,15.40
2017-07-03T06:43:19.523Z,15.60
2017-07-03T06:45:47.263Z,15.60
2017-07-03T06:48:14.883Z,15.60
2017-07-03T06:50:43.138Z,15.70
2017-07-03T06:53:10.634Z,15.70
2017-07-03T06:55:38.110Z,15.90
2017-07-03T06:58:05.557Z,16.00
2017-07-03T07:00:32.995Z,16.20
2017-07-03T07:03:00.550Z,16.40
2017-07-03T07:05:28.759Z,16.90
2017-07-03T07:07:56.247Z,16.90
2017-07-03T07:10:23.698Z,17.10
2017-07-03T07:12:51.156Z,17.00
2017-07-03T07:15:18.643Z,17.00
2017-07-03T07:17:46.172Z,16.90
2017-07-03T07:20:13.653Z,16.80
2017-07-03T07:22:41.099Z,16.90
2017-07-03T07:25:08.547Z,17.10
2017-07-03T07:27:35.999Z,17.20
2017-07-03T07:30:03.840Z,17.10
2017-07-03T07:32:31.299Z,17.10
2017-07-03T07:34:58.783Z,17.20
2017-07-03T07:37:26.211Z,17.40
2017-07-03T07:39:53.683Z,17.20
2017-07-03T07:42:21.209Z,17.10
2017-07-03T07:44:48.751Z,17.00
2017-07-03T07:47:16.190Z,17.00
2017-07-03T07:49:44.443Z,17.20
2017-07-03T07:52:11.887Z,17.10
2017-07-03T07:54:39.339Z,17.30
2017-07-03T07:57:06.817Z,17.30
2017-07-03T07:59:34.438Z,17.30
2017-07-03T08:02:01.863Z,17.20
2017-07-03T08:04:30.106Z,16.70
2017-07-03T08:06:57.627Z,16.70
2017-07-03T08:09:25.061Z,16.70
2017-07-03T08:11:52.539Z,16.90
2017-07-03T08:14:19.967Z,17.00
2017-07-03T08:16:47.492Z,17.10
2017-07-03T08:19:14.985Z,17.30
2017-07-03T08:21:42.531Z,17.30
2017-07-03T08:24:10.792Z,17.20
2017-07-03T08:26:38.995Z,17.30
2017-07-03T08:29:06.455Z,17.30
2017-07-03T08:31:33.924Z,17.30
2017-07-03T08:34:01.388Z,17.20
2017-07-03T08:36:28.946Z,17.30
2017-07-03T08:38:56.400Z,17.40
2017-07-03T08:41:23.871Z,17.50
2017-07-03T08:43:51.289Z,17.70
2017-07-03T08:46:18.730Z,17.80
2017-07-03T08:48:46.959Z,17.80
2017-07-03T08:51:14.414Z,17.80
2017-07-03T08:53:41.851Z,18.00
2017-07-03T08:56:09.335Z,18.00
2017-07-03T08:58:36.764Z,18.30
2017-07-03T09:01:04.306Z,18.60
2017-07-03T09:03:31.831Z,18.60
2017-07-03T09:06:00.165Z,18.60
2017-07-03T09:08:27.642Z,18.50
2017-07-03T09:10:55.216Z,18.50
2017-07-03T09:13:22.709Z,18.40
2017-07-03T09:15:50.135Z,18.40
2017-07-03T09:18:18.363Z,18.40
2017-07-03T09:20:45.803Z,18.40
2017-07-03T09:23:13.289Z,18.60
2017-07-03T09:25:40.758Z,18.70
2017-07-03T09:28:08.270Z,18.60
2017-07-03T09:30:35.738Z,18.60
2017-07-03T09:33:03.227Z,18.60
2017-07-03T09:35:30.696Z,18.70
2017-07-03T09:37:58.146Z,18.90
2017-07-03T09:40:25.604Z,19.10
2017-07-03T09:42:53.123Z,19.30
2017-07-03T09:45:20.622Z,19.50
2017-07-03T09:47:48.070Z,19.60
2017-07-03T09:50:15.543Z,19.80
2017-07-03T09:52:42.963Z,20.10
2017-07-03T09:55:10.447Z,20.30
2017-07-03T09:57:37.894Z,20.50
2017-07-03T10:00:05.388Z,20.30
2017-07-03T10:02:32.846Z,20.00
2017-07-03T10:05:00.395Z,19.70
2017-07-03T10:07:28.744Z,19.60
2017-07-03T10:09:56.175Z,19.50
2017-07-03T10:12:23.783Z,19.50
2017-07-03T10:14:52.022Z,19.40
2017-07-03T10:17:19.485Z,19.30
2017-07-03T10:19:46.947Z,19.30
2017-07-03T10:22:14.522Z,19.40
2017-07-03T10:24:41.989Z,19.50
2017-07-03T10:27:10.204Z,19.20
2017-07-03T10:29:37.654Z,19.10
2017-07-03T10:32:05.112Z,19.40
2017-07-03T10:34:32.598Z,19.50
2017-07-03T10:37:00.027Z,19.60
2017-07-03T10:39:27.565Z,19.60
2017-07-03T10:41:55.082Z,19.80
2017-07-03T10:44:22.629Z,19.90
2017-07-03T10:46:50.074Z,19.90
2017-07-03T10:49:17.640Z,20.00
2017-07-03T10:51:45.115Z,19.80
2017-07-03T10:54:12.663Z,19.60
2017-07-03T10:56:40.120Z,19.80
2017-07-03T10:59:07.594Z,19.90
2017-07-03T11:01:35.118Z,20.00
2017-07-03T11:04:02.603Z,20.00
2017-07-03T11:06:30.054Z,20.10
2017-07-03T11:08:57.517Z,20.20
2017-07-03T11:11:25.143Z,20.40
2017-07-03T11:13:52.576Z,20.60
2017-07-03T11:16:20.095Z,20.60
2017-07-03T11:18:47.730Z,20.80
2017-07-03T11:21:15.249Z,21.00
2017-07-03T11:23:42.738Z,21.20
2017-07-03T11:26:10.196Z,20.80
2017-07-03T11:28:37.667Z,20.60
2017-07-03T11:31:05.159Z,20.50
2017-07-03T11:33:33.428Z,20.80
2017-07-03T11:36:02.574Z,20.90
2017-07-03T11:38:30.052Z,20.80
2017-07-03T11:40:57.535Z,20.90
2017-07-03T11:43:25.766Z,20.80
2017-07-03T11:45:53.234Z,20.70
2017-07-03T11:48:20.675Z,20.80
2017-07-03T11:50:48.129Z,20.80
2017-07-03T11:53:15.673Z,20.80
2017-07-03T11:55:43.131Z,21.00
2017-07-03T11:58:10.582Z,21.10
2017-07-03T12:00:38.058Z,21.00
2017-07-03T12:03:05.497Z,20.80
2017-07-03T12:05:32.942Z,20.80
2017-07-03T12:08:00.456Z,20.90
2017-07-03T12:10:27.927Z,21.10
2017-07-03T12:12:55.455Z,21.20
2017-07-03T12:15:22.985Z,21.20
2017-07-03T12:17:50.486Z,21.30
2017-07-03T12:20:17.943Z,21.40
2017-07-03T12:22:45.376Z,21.40
2017-07-03T12:25:12.863Z,21.20
2017-07-03T12:27:40.293Z,21.10
2017-07-03T12:30:07.740Z,21.10
2017-07-03T12:32:35.194Z,21.20
2017-07-03T12:35:02.633Z,21.20
2017-07-03T12:37:30.083Z,21.20
2017-07-03T12:39:57.545Z,21.30
2017-07-03T12:42:24.990Z,21.40
2017-07-03T12:44:52.448Z,21.70
2017-07-03T12:47:20.061Z,22.00
2017-07-03T12:49:47.485Z,21.90
2017-07-03T12:52:14.955Z,21.70
2017-07-03T12:54:42.390Z,21.70
2017-07-03T12:57:09.842Z,21.70
2017-07-03T12:59:37.310Z,21.80
2017-07-03T13:02:04.763Z,21.90
2017-07-03T13:04:32.227Z,21.80
2017-07-03T13:06:59.663Z,21.80
2017-07-03T13:09:27.158Z,21.90
2017-07-03T13:11:54.578Z,22.10
2017-07-03T13:14:22.063Z,22.20
2017-07-03T13:16:49.499Z,22.10
2017-07-03T13:19:17.043Z,22.00
2017-07-03T13:21:44.546Z,21.90
2017-07-03T13:24:12.090Z,21.90
2017-07-03T13:26:39.626Z,21.80
2017-07-03T13:29:07.171Z,21.80
2017-07-03T13:31:34.667Z,21.90
2017-07-03T13:34:02.119Z,22.10
2017-07-03T13:36:29.587Z,22.10
2017-07-03T13:38:57.047Z,22.20
2017-07-03T13:41:24.595Z,22.40
2017-07-03T13:43:52.059Z,22.20
2017-07-03T13:46:19.503Z,22.00
2017-07-03T13:48:46.961Z,21.90
2017-07-03T13:51:14.448Z,21.80
2017-07-03T13:53:41.902Z,21.90
2017-07-03T13:56:10.123Z,22.30
2017-07-03T13:58:37.680Z,22.20
2017-07-03T14:01:05.153Z,22.50
2017-07-03T14:03:32.831Z,22.50
2017-07-03T14:06:00.420Z,22.60
2017-07-03T14:08:27.872Z,22.30
2017-07-03T14:10:55.400Z,22.20
2017-07-03T14:13:22.831Z,22.40
2017-07-03T14:15:50.319Z,22.50
2017-07-03T14:18:17.793Z,22.50
2017-07-03T14:20:45.335Z,22.50
2017-07-03T14:23:12.958Z,22.50
2017-07-03T14:25:40.644Z,22.70
2017-07-03T14:28:08.098Z,22.70
2017-07-03T14:30:35.527Z,22.80
2017-07-03T14:33:02.991Z,22.80
2017-07-03T14:35:30.425Z,23.00
2017-07-03T14:37:57.894Z,22.90
2017-07-03T14:40:25.442Z,22.80
2017-07-03T14:42:52.906Z,22.60
2017-07-03T14:45:20.455Z,22.70
2017-07-03T14:47:47.942Z,23.00
2017-07-03T14:50:16.164Z,23.20
2017-07-03T14:52:43.607Z,23.20
2017-07-03T14:55:11.083Z,23.20
2017-07-03T14:57:38.568Z,23.30
2017-07-03T15:00:06.835Z,23.40
2017-07-03T15:02:34.410Z,23.40
2017-07-03T15:05:01.891Z,23.40
2017-07-03T15:09:56.331Z,23.60
2017-07-03T15:12:23.902Z,23.70
2017-07-03T15:14:51.464Z,23.90
2017-07-03T15:17:18.925Z,23.80
2017-07-03T15:19:46.373Z,23.80
2017-07-03T15:22:13.802Z,24.50
2017-07-03T15:24:41.343Z,24.60
2017-07-03T15:27:08.856Z,24.10
2017-07-03T15:29:36.311Z,23.80
2017-07-03T15:32:04.544Z,23.10
2017-07-03T15:34:31.982Z,23.10
2017-07-03T15:36:59.419Z,22.70
2017-07-03T15:39:26.928Z,22.40
2017-07-03T15:41:54.419Z,22.40
2017-07-03T15:44:22.628Z,21.10
2017-07-03T15:46:50.085Z,21.00
2017-07-03T15:49:17.516Z,20.50
2017-07-03T15:51:45.076Z,20.20
2017-07-03T15:54:13.403Z,19.90
2017-07-03T15:56:40.864Z,19.80
2017-07-03T15:59:08.411Z,19.80
2017-07-03T16:01:35.971Z,19.90
2017-07-03T16:04:03.462Z,20.20
2017-07-03T16:06:30.895Z,20.70
2017-07-03T16:08:58.628Z,21.20
2017-07-03T16:11:26.071Z,21.90
2017-07-03T16:13:53.637Z,22.60
2017-07-03T16:16:21.232Z,22.70
2017-07-03T16:18:48.693Z,22.80
2017-07-03T16:21:16.154Z,22.80
2017-07-03T16:23:43.654Z,22.60
2017-07-03T16:26:11.133Z,22.60
2017-07-03T16:28:38.747Z,22.50
2017-07-03T16:31:06.993Z,23.20
2017-07-03T16:33:34.422Z,23.10
2017-07-03T16:36:01.910Z,23.20
2017-07-03T16:38:29.356Z,22.90
2017-07-03T16:40:56.820Z,22.50
2017-07-03T16:43:24.267Z,22.20
2017-07-03T16:45:51.726Z,22.00
2017-07-03T16:48:19.208Z,21.80
2017-07-03T16:50:46.715Z,21.70
2017-07-03T16:53:14.159Z,21.70
2017-07-03T16:55:41.655Z,21.60
2017-07-03T16:58:09.135Z,21.40
2017-07-03T17:00:36.715Z,21.10
2017-07-03T17:03:04.174Z,20.90
2017-07-03T17:05:31.635Z,20.40
2017-07-03T17:07:59.094Z,20.20
2017-07-03T17:10:26.556Z,19.10
2017-07-03T17:12:53.999Z,18.30
2017-07-03T17:15:21.461Z,17.60
2017-07-03T17:17:48.911Z,17.20
2017-07-03T17:20:16.366Z,16.90
2017-07-03T17:22:44.608Z,16.80
2017-07-03T17:25:12.073Z,16.70
2017-07-03T17:27:39.559Z,16.80
2017-07-03T17:30:06.990Z,16.80
2017-07-03T17:32:35.262Z,16.90
2017-07-03T17:35:03.479Z,16.90
2017-07-03T17:37:30.997Z,16.90
2017-07-03T17:39:59.204Z,17.00
2017-07-03T17:42:27.185Z,16.90
2017-07-03T17:44:55.472Z,17.00
2017-07-03T17:47:22.954Z,17.00
2017-07-03T17:49:50.427Z,17.10
2017-07-03T17:52:18.784Z,17.10
2017-07-03T17:54:46.265Z,17.00
2017-07-03T17:57:13.707Z,17.10
2017-07-03T17:59:41.311Z,17.10
2017-07-03T18:02:08.812Z,17.10
2017-07-03T18:04:36.244Z,17.10
2017-07-03T18:07:03.799Z,17.10
2017-07-03T18:09:31.287Z,17.10
2017-07-03T18:11:58.710Z,17.10
2017-07-03T18:14:26.153Z,17.00
2017-07-03T18:16:53.679Z,17.00
2017-07-03T18:19:21.924Z,16.90
2017-07-03T18:21:49.406Z,16.90
2017-07-03T18:24:16.873Z,16.90
2017-07-03T18:26:45.115Z,16.90
2017-07-03T18:29:12.590Z,16.90
2017-07-03T18:31:40.100Z,16.90
2017-07-03T18:34:07.544Z,16.90
2017-07-03T18:36:35.163Z,16.80
2017-07-03T18:39:02.815Z,16.80
2017-07-03T18:41:30.377Z,16.80
2017-07-03T18:43:57.836Z,16.90
2017-07-03T18:46:25.266Z,16.90
2017-07-03T18:48:52.738Z,16.90
2017-07-03T18:51:20.283Z,16.90
2017-07-03T18:53:47.732Z,16.80
2017-07-03T18:56:15.194Z,16.80
2017-07-03T18:58:42.683Z,16.90
2017-07-03T19:01:10.182Z,16.90
2017-07-03T19:03:37.652Z,16.90
2017-07-03T19:06:05.109Z,16.90
2017-07-03T19:08:32.573Z,16.90
2017-07-03T19:11:00.079Z,16.90
2017-07-03T19:13:27.530Z,16.90
2017-07-03T19:15:54.954Z,16.90
2017-07-03T19:18:22.543Z,16.90
2017-07-03T19:20:50.092Z,16.90
2017-07-03T19:23:18.379Z,16.80
2017-07-03T19:25:45.815Z,16.80
2017-07-03T19:28:14.065Z,16.70
2017-07-03T19:30:41.531Z,16.70
2017-07-03T19:33:09.065Z,16.70
2017-07-03T19:35:36.556Z,16.60
2017-07-03T19:38:04.000Z,16.60
2017-07-03T19:40:31.440Z,16.60
2017-07-03T19:42:58.968Z,16.60
2017-07-03T19:45:26.448Z,16.50
2017-07-03T19:47:53.937Z,16.50
2017-07-03T19:50:22.135Z,16.50
2017-07-03T19:52:49.652Z,16.50
2017-07-03T19:55:17.193Z,16.50
2017-07-03T19:57:44.651Z,16.50
2017-07-03T20:00:12.092Z,16.50
2017-07-03T20:02:39.625Z,16.40
2017-07-03T20:05:07.131Z,16.40
2017-07-03T20:07:34.681Z,16.40
2017-07-03T20:10:02.140Z,16.40
2017-07-03T20:12:30.803Z,16.40
2017-07-03T20:14:58.727Z,16.30
2017-07-03T20:17:27.457Z,16.30
2017-07-03T20:19:55.424Z,16.20
2017-07-03T20:22:23.396Z,16.30
2017-07-03T20:24:51.256Z,16.30
2017-07-03T20:27:18.767Z,16.30
2017-07-03T20:29:46.211Z,16.30
2017-07-03T20:32:13.778Z,16.30
2017-07-03T20:34:41.242Z,16.20
2017-07-03T20:37:09.502Z,16.20
2017-07-03T20:39:37.080Z,16.20
2017-07-03T20:42:05.259Z,16.20
2017-07-03T20:44:33.513Z,16.10
2017-07-03T20:47:00.942Z,16.10
2017-07-03T20:49:28.386Z,16.10
2017-07-03T20:51:55.863Z,16.10
2017-07-03T20:54:23.423Z,16.10
2017-07-03T20:56:50.883Z,16.00
2017-07-03T20:59:18.390Z,16.00
2017-07-03T21:01:46.607Z,15.90
2017-07-03T21:04:14.067Z,15.90
2017-07-03T21:06:41.507Z,15.90
2017-07-03T21:09:08.940Z,15.90
2017-07-03T21:11:36.419Z,15.80
2017-07-03T21:14:03.908Z,15.80
2017-07-03T21:16:31.449Z,15.80
2017-07-03T21:18:58.926Z,15.80
2017-07-03T21:21:26.480Z,15.80
2017-07-03T21:23:53.915Z,15.80
2017-07-03T21:26:21.380Z,15.70
2017-07-03T21:28:48.857Z,15.70
2017-07-03T21:31:17.121Z,15.70
2017-07-03T21:33:44.581Z,15.70
2017-07-03T21:36:12.802Z,15.70
2017-07-03T21:38:40.297Z,15.70
2017-07-03T21:41:07.763Z,15.70
2017-07-03T21:43:35.335Z,15.80
2017-07-03T21:46:03.606Z,15.80
2017-07-03T21:48:31.159Z,15.70
2017-07-03T21:50:58.599Z,15.80
2017-07-03T21:53:26.039Z,15.70
2017-07-03T21:55:53.498Z,15.70
2017-07-03T21:58:21.018Z,15.70
2017-07-03T22:00:49.273Z,15.70
2017-07-03T22:03:16.812Z,15.70
2017-07-03T22:05:44.371Z,15.70
2017-07-03T22:08:11.966Z,15.70
2017-07-03T22:10:39.441Z,15.70
2017-07-03T22:13:07.653Z,15.70
2017-07-03T22:15:35.162Z,15.70
2017-07-03T22:18:02.690Z,15.70
2017-07-03T22:20:30.163Z,15.70
2017-07-03T22:22:58.435Z,15.70
2017-07-03T22:25:26.667Z,15.60
2017-07-03T22:27:54.175Z,15.60
2017-07-03T22:30:21.693Z,15.70
2017-07-03T22:32:49.142Z,15.70
2017-07-03T22:35:16.618Z,15.70
2017-07-03T22:37:44.891Z,15.80
2017-07-03T22:40:12.443Z,15.70
2017-07-03T22:42:39.899Z,15.80
2017-07-03T22:45:07.369Z,15.80
2017-07-03T22:47:34.804Z,15.80
2017-07-03T22:50:02.249Z,15.70
2017-07-03T22:52:29.799Z,15.70
2017-07-03T22:54:57.284Z,15.70
2017-07-03T22:57:24.851Z,15.70
2017-07-03T22:59:52.302Z,15.60
2017-07-03T23:02:19.758Z,15.60
2017-07-03T23:04:47.301Z,15.50
2017-07-03T23:07:14.731Z,15.60
2017-07-03T23:09:42.231Z,15.40
2017-07-03T23:12:09.809Z,15.40
2017-07-03T23:14:38.038Z,15.30
2017-07-03T23:17:05.513Z,15.30
2017-07-03T23:19:32.969Z,15.30
2017-07-03T23:22:00.399Z,15.30
2017-07-03T23:24:27.887Z,15.20
2017-07-03T23:26:55.368Z,15.20
2017-07-03T23:29:23.572Z,15.20
2017-07-03T23:31:51.069Z,15.20
2017-07-03T23:34:18.531Z,15.10
2017-07-03T23:36:46.004Z,15.10
2017-07-03T23:39:13.424Z,15.10
2017-07-03T23:41:40.890Z,14.90
2017-07-03T23:44:08.336Z,14.90
2017-07-03T23:46:35.807Z,14.90
2017-07-03T23:49:03.242Z,14.90
2017-07-03T23:51:30.711Z,14.90
2017-07-03T23:53:58.185Z,14.90
2017-07-03T23:56:25.744Z,14.90
2017-07-03T23:58:53.360Z,14.90
